createdAt,value
2023-04-10T00:00:02.972Z,102265.88
2023-04-10T00:00:33.403Z,102268.59
2023-04-10T00:01:03.843Z,102267.26
2023-04-10T00:01:34.293Z,102268.76
2023-04-10T00:02:04.842Z,102266.40
2023-04-10T00:02:35.381Z,102269.09
2023-04-10T00:03:06.239Z,102269.73
2023-04-10T00:03:36.892Z,102266.73
2023-04-10T00:04:07.504Z,102265.72
2023-04-10T00:04:38.092Z,102266.73
2023-04-10T00:05:08.595Z,102265.54
2023-04-10T00:05:39.033Z,102265.73
2023-04-10T00:06:09.484Z,102266.91
2023-04-10T00:06:39.904Z,102268.39
2023-04-10T00:07:10.316Z,102263.99
2023-04-10T00:07:40.742Z,102263.99
2023-04-10T00:08:11.160Z,102264.52
2023-04-10T00:08:41.581Z,102263.52
2023-04-10T00:09:12.014Z,102261.16
2023-04-10T00:09:42.446Z,102259.83
2023-04-10T00:10:12.879Z,102256.28
2023-04-10T00:10:43.312Z,102262.66
2023-04-10T00:11:13.722Z,102258.94
2023-04-10T00:11:44.140Z,102260.47
2023-04-10T00:12:14.572Z,102260.64
2023-04-10T00:12:44.987Z,102259.80
2023-04-10T00:13:15.405Z,102259.27
2023-04-10T00:13:45.821Z,102259.99
2023-04-10T00:14:16.251Z,102257.62
2023-04-10T00:14:46.676Z,102253.25
2023-04-10T00:15:17.098Z,102259.32
2023-04-10T00:15:47.514Z,102256.45
2023-04-10T00:16:17.968Z,102256.45
2023-04-10T00:16:48.412Z,102251.55
2023-04-10T00:17:18.792Z,102257.97
2023-04-10T00:17:49.249Z,102254.41
2023-04-10T00:18:19.653Z,102251.05
2023-04-10T00:18:50.076Z,102254.27
2023-04-10T00:19:20.499Z,102253.59
2023-04-10T00:19:50.922Z,102250.73
2023-04-10T00:20:21.345Z,102248.55
2023-04-10T00:20:51.786Z,102251.58
2023-04-10T00:21:22.221Z,102251.05
2023-04-10T00:21:52.646Z,102249.36
2023-04-10T00:22:23.066Z,102250.03
2023-04-10T00:22:53.489Z,102248.36
2023-04-10T00:23:23.920Z,102246.67
2023-04-10T00:23:54.625Z,102247.50
2023-04-10T00:24:25.174Z,102248.17
2023-04-10T00:24:55.593Z,102246.69
2023-04-10T00:25:26.015Z,102247.53
2023-04-10T00:25:56.463Z,102247.34
2023-04-10T00:26:26.913Z,102244.82
2023-04-10T00:26:57.306Z,102241.11
2023-04-10T00:27:27.724Z,102242.31
2023-04-10T00:27:58.160Z,102245.67
2023-04-10T00:28:28.573Z,102244.82
2023-04-10T00:28:58.993Z,102239.95
2023-04-10T00:29:29.436Z,102241.12
2023-04-10T00:29:59.878Z,102243.13
2023-04-10T00:30:30.288Z,102241.95
2023-04-10T00:31:00.715Z,102239.61
2023-04-10T00:31:31.169Z,102242.12
2023-04-10T00:32:01.664Z,102237.03
2023-04-10T00:32:32.069Z,102237.05
2023-04-10T00:33:02.532Z,102237.59
2023-04-10T00:33:32.950Z,102235.73
2023-04-10T00:34:03.372Z,102234.88
2023-04-10T00:34:33.796Z,102236.55
2023-04-10T00:35:04.219Z,102232.52
2023-04-10T00:35:34.662Z,102235.38
2023-04-10T00:36:05.128Z,102234.22
2023-04-10T00:36:35.518Z,102236.38
2023-04-10T00:37:05.936Z,102230.97
2023-04-10T00:37:36.377Z,102232.99
2023-04-10T00:38:06.802Z,102236.82
2023-04-10T00:38:37.232Z,102234.67
2023-04-10T00:39:07.673Z,102232.47
2023-04-10T00:39:38.074Z,102229.95
2023-04-10T00:40:08.500Z,102233.17
2023-04-10T00:40:38.916Z,102229.12
2023-04-10T00:41:09.381Z,102228.45
2023-04-10T00:41:39.897Z,102232.15
2023-04-10T00:42:10.313Z,102231.67
2023-04-10T00:42:40.735Z,102229.98
2023-04-10T00:43:11.160Z,102230.84
2023-04-10T00:43:41.578Z,102224.93
2023-04-10T00:44:12.011Z,102228.83
2023-04-10T00:44:42.417Z,102227.43
2023-04-10T00:45:12.838Z,102227.09
2023-04-10T00:45:43.291Z,102228.47
2023-04-10T00:46:13.830Z,102226.95
2023-04-10T00:46:44.342Z,102225.44
2023-04-10T00:47:14.744Z,102224.25
2023-04-10T00:47:45.199Z,102226.81
2023-04-10T00:48:15.595Z,102231.37
2023-04-10T00:48:46.007Z,102223.44
2023-04-10T00:49:16.430Z,102224.11
2023-04-10T00:49:46.847Z,102224.59
2023-04-10T00:50:17.310Z,102226.11
2023-04-10T00:50:47.698Z,102225.47
2023-04-10T00:51:18.118Z,102227.66
2023-04-10T00:51:48.548Z,102224.62
2023-04-10T00:52:19.125Z,102221.09
2023-04-10T00:52:49.580Z,102222.43
2023-04-10T00:53:19.968Z,102223.61
2023-04-10T00:53:50.399Z,102225.30
2023-04-10T00:54:20.825Z,102222.75
2023-04-10T00:54:51.260Z,102224.09
2023-04-10T00:55:21.684Z,102222.41
2023-04-10T00:55:52.107Z,102225.27
2023-04-10T00:56:22.541Z,102226.80
2023-04-10T00:56:52.987Z,102227.28
2023-04-10T00:57:23.409Z,102225.09
2023-04-10T00:57:53.841Z,102226.61
2023-04-10T00:58:24.262Z,102224.76
2023-04-10T00:58:54.682Z,102223.08
2023-04-10T00:59:25.105Z,102224.27
2023-04-10T00:59:55.524Z,102225.63
2023-04-10T01:00:25.949Z,102222.58
2023-04-10T01:00:56.420Z,102223.61
2023-04-10T01:01:26.847Z,102226.46
2023-04-10T01:01:57.346Z,102225.27
2023-04-10T01:02:27.993Z,102224.59
2023-04-10T01:02:58.524Z,102224.59
2023-04-10T01:03:29.350Z,102225.45
2023-04-10T01:04:00.398Z,102224.44
2023-04-10T01:04:31.101Z,102222.39
2023-04-10T01:05:01.548Z,102221.04
2023-04-10T01:05:31.980Z,102224.88
2023-04-10T01:06:02.405Z,102220.00
2023-04-10T01:06:32.822Z,102221.56
2023-04-10T01:07:03.255Z,102223.58
2023-04-10T01:07:33.676Z,102220.72
2023-04-10T01:08:04.096Z,102224.56
2023-04-10T01:08:34.530Z,102223.43
2023-04-10T01:09:04.943Z,102224.23
2023-04-10T01:09:35.407Z,102220.20
2023-04-10T01:10:05.800Z,102223.95
2023-04-10T01:10:36.224Z,102223.14
2023-04-10T01:11:06.637Z,102223.83
2023-04-10T01:11:37.084Z,102219.42
2023-04-10T01:12:07.495Z,102220.27
2023-04-10T01:12:37.920Z,102219.44
2023-04-10T01:13:08.348Z,102222.12
2023-04-10T01:13:38.769Z,102222.45
2023-04-10T01:14:09.199Z,102219.75
2023-04-10T01:14:39.648Z,102221.28
2023-04-10T01:15:10.043Z,102219.09
2023-04-10T01:15:40.466Z,102220.77
2023-04-10T01:16:10.895Z,102221.77
2023-04-10T01:16:41.388Z,102217.70
2023-04-10T01:17:12.093Z,102216.70
2023-04-10T01:17:42.567Z,102216.88
2023-04-10T01:18:12.986Z,102215.34
2023-04-10T01:18:43.421Z,102215.35
2023-04-10T01:19:13.842Z,102218.06
2023-04-10T01:19:44.261Z,102218.23
2023-04-10T01:20:14.685Z,102215.53
2023-04-10T01:20:45.106Z,102216.53
2023-04-10T01:21:15.526Z,102214.88
2023-04-10T01:21:45.946Z,102219.91
2023-04-10T01:22:16.390Z,102213.34
2023-04-10T01:22:46.822Z,102216.73
2023-04-10T01:23:17.250Z,102218.40
2023-04-10T01:23:47.657Z,102218.05
2023-04-10T01:24:18.080Z,102217.39
2023-04-10T01:24:48.507Z,102214.38
2023-04-10T01:25:18.925Z,102214.69
2023-04-10T01:25:49.349Z,102214.38
2023-04-10T01:26:19.769Z,102217.69
2023-04-10T01:26:50.212Z,102215.86
2023-04-10T01:27:20.618Z,102213.16
2023-04-10T01:27:51.035Z,102213.48
2023-04-10T01:28:21.481Z,102220.75
2023-04-10T01:28:51.884Z,102218.39
2023-04-10T01:29:22.309Z,102218.55
2023-04-10T01:29:52.727Z,102217.70
2023-04-10T01:30:23.156Z,102219.08
2023-04-10T01:30:53.630Z,102217.05
2023-04-10T01:31:24.045Z,102219.42
2023-04-10T01:31:54.456Z,102217.39
2023-04-10T01:32:24.930Z,102223.96
2023-04-10T01:32:55.343Z,102221.28
2023-04-10T01:33:25.752Z,102222.11
2023-04-10T01:33:56.561Z,102221.59
2023-04-10T01:34:27.202Z,102223.28
2023-04-10T01:34:57.604Z,102226.12
2023-04-10T01:35:28.041Z,102224.45
2023-04-10T01:35:58.457Z,102223.42
2023-04-10T01:36:28.880Z,102223.77
2023-04-10T01:36:59.294Z,102224.63
2023-04-10T01:37:29.741Z,102223.62
2023-04-10T01:38:00.162Z,102224.66
2023-04-10T01:38:30.589Z,102225.84
2023-04-10T01:39:01.005Z,102228.38
2023-04-10T01:39:31.425Z,102227.02
2023-04-10T01:40:01.863Z,102228.38
2023-04-10T01:40:32.293Z,102223.67
2023-04-10T01:41:02.714Z,102224.82
2023-04-10T01:41:33.132Z,102221.27
2023-04-10T01:42:03.588Z,102220.12
2023-04-10T01:42:34.004Z,102224.82
2023-04-10T01:43:04.425Z,102224.48
2023-04-10T01:43:34.864Z,102223.64
2023-04-10T01:44:05.271Z,102222.61
2023-04-10T01:44:35.690Z,102218.92
2023-04-10T01:45:06.111Z,102221.77
2023-04-10T01:45:36.537Z,102220.09
2023-04-10T01:46:07.001Z,102220.42
2023-04-10T01:46:37.397Z,102218.40
2023-04-10T01:47:07.817Z,102218.25
2023-04-10T01:47:38.279Z,102217.42
2023-04-10T01:48:08.711Z,102216.42
2023-04-10T01:48:39.107Z,102218.41
2023-04-10T01:49:09.516Z,102211.19
2023-04-10T01:49:39.940Z,102208.48
2023-04-10T01:50:10.371Z,102210.84
2023-04-10T01:50:40.793Z,102211.84
2023-04-10T01:51:11.218Z,102211.67
2023-04-10T01:51:41.631Z,102208.81
2023-04-10T01:52:12.052Z,102212.85
2023-04-10T01:52:42.490Z,102213.70
2023-04-10T01:53:12.911Z,102213.88
2023-04-10T01:53:43.328Z,102211.84
2023-04-10T01:54:13.766Z,102207.97
2023-04-10T01:54:44.176Z,102208.64
2023-04-10T01:55:14.619Z,102208.98
2023-04-10T01:55:45.024Z,102206.94
2023-04-10T01:56:15.442Z,102209.97
2023-04-10T01:56:45.869Z,102205.28
2023-04-10T01:57:16.308Z,102206.12
2023-04-10T01:57:46.737Z,102211.67
2023-04-10T01:58:17.191Z,102205.77
2023-04-10T01:58:47.604Z,102210.19
2023-04-10T01:59:18.033Z,102211.52
2023-04-10T01:59:48.472Z,102211.35
2023-04-10T02:00:18.986Z,102209.17
2023-04-10T02:00:49.399Z,102214.20
2023-04-10T02:01:29.132Z,102208.66
2023-04-10T02:01:55.267Z,102212.50
2023-04-10T02:02:25.829Z,102209.50
2023-04-10T02:02:56.489Z,102212.52
2023-04-10T02:03:27.242Z,102214.03
2023-04-10T02:03:58.061Z,102215.21
2023-04-10T02:04:28.716Z,102215.39
2023-04-10T02:04:59.181Z,102214.53
2023-04-10T02:05:29.575Z,102212.70
2023-04-10T02:05:59.994Z,102214.53
2023-04-10T02:06:30.421Z,102213.02
2023-04-10T02:07:00.854Z,102211.69
2023-04-10T02:07:31.280Z,102215.56
2023-04-10T02:08:01.716Z,102211.67
2023-04-10T02:08:32.123Z,102212.70
2023-04-10T02:09:02.537Z,102215.06
2023-04-10T02:09:32.962Z,102215.55
2023-04-10T02:10:03.399Z,102213.86
2023-04-10T02:10:33.824Z,102215.21
2023-04-10T02:11:04.242Z,102216.42
2023-04-10T02:11:34.663Z,102212.56
2023-04-10T02:12:05.085Z,102214.22
2023-04-10T02:12:35.524Z,102211.69
2023-04-10T02:13:05.940Z,102212.90
2023-04-10T02:13:36.356Z,102211.70
2023-04-10T02:14:06.774Z,102215.05
2023-04-10T02:14:37.194Z,102214.86
2023-04-10T02:15:07.627Z,102213.00
2023-04-10T02:15:38.090Z,102215.70
2023-04-10T02:16:08.569Z,102210.33
2023-04-10T02:16:39.012Z,102214.20
2023-04-10T02:17:09.433Z,102210.81
2023-04-10T02:17:39.895Z,102212.69
2023-04-10T02:18:10.285Z,102210.84
2023-04-10T02:18:40.706Z,102209.84
2023-04-10T02:19:11.141Z,102209.50
2023-04-10T02:19:41.572Z,102204.10
2023-04-10T02:20:12.003Z,102209.50
2023-04-10T02:20:42.432Z,102208.00
2023-04-10T02:21:12.842Z,102208.16
2023-04-10T02:21:43.279Z,102207.97
2023-04-10T02:22:13.685Z,102206.46
2023-04-10T02:22:44.121Z,102206.14
2023-04-10T02:23:14.547Z,102206.97
2023-04-10T02:23:44.981Z,102211.20
2023-04-10T02:24:15.407Z,102207.30
2023-04-10T02:24:45.822Z,102209.33
2023-04-10T02:25:16.259Z,102203.11
2023-04-10T02:25:46.666Z,102206.65
2023-04-10T02:26:17.089Z,102205.80
2023-04-10T02:26:47.506Z,102206.49
2023-04-10T02:27:17.933Z,102204.47
2023-04-10T02:27:48.378Z,102206.28
2023-04-10T02:28:18.788Z,102205.64
2023-04-10T02:28:49.223Z,102203.78
2023-04-10T02:29:19.636Z,102202.77
2023-04-10T02:29:50.059Z,102209.16
2023-04-10T02:30:20.489Z,102205.13
2023-04-10T02:30:50.918Z,102204.96
2023-04-10T02:31:21.360Z,102206.12
2023-04-10T02:31:51.750Z,102204.77
2023-04-10T02:32:22.170Z,102202.09
2023-04-10T02:32:52.609Z,102200.92
2023-04-10T02:33:23.031Z,102206.30
2023-04-10T02:33:53.717Z,102203.45
2023-04-10T02:34:24.279Z,102204.12
2023-04-10T02:34:54.694Z,102202.42
2023-04-10T02:35:25.134Z,102206.11
2023-04-10T02:35:55.569Z,102204.59
2023-04-10T02:36:25.966Z,102201.56
2023-04-10T02:36:56.417Z,102198.02
2023-04-10T02:37:26.814Z,102199.38
2023-04-10T02:37:57.264Z,102203.58
2023-04-10T02:38:27.700Z,102203.08
2023-04-10T02:38:58.121Z,102204.58
2023-04-10T02:39:28.542Z,102203.75
2023-04-10T02:39:58.962Z,102205.77
2023-04-10T02:40:29.383Z,102205.61
2023-04-10T02:40:59.807Z,102207.46
2023-04-10T02:41:30.233Z,102207.97
2023-04-10T02:42:00.663Z,102210.68
2023-04-10T02:42:31.083Z,102206.95
2023-04-10T02:43:01.535Z,102213.68
2023-04-10T02:43:31.944Z,102210.81
2023-04-10T02:44:02.365Z,102209.82
2023-04-10T02:44:32.786Z,102211.34
2023-04-10T02:45:03.213Z,102208.12
2023-04-10T02:45:33.633Z,102210.64
2023-04-10T02:46:04.053Z,102211.83
2023-04-10T02:46:34.540Z,102211.66
2023-04-10T02:47:04.993Z,102211.98
2023-04-10T02:47:35.416Z,102210.30
2023-04-10T02:48:05.859Z,102213.16
2023-04-10T02:48:36.258Z,102210.61
2023-04-10T02:49:06.692Z,102211.31
2023-04-10T02:49:37.103Z,102212.64
2023-04-10T02:50:07.527Z,102211.12
2023-04-10T02:50:37.944Z,102212.99
2023-04-10T02:51:08.364Z,102212.19
2023-04-10T02:51:38.792Z,102214.38
2023-04-10T02:52:09.210Z,102213.50
2023-04-10T02:52:39.633Z,102216.88
2023-04-10T02:53:10.048Z,102219.40
2023-04-10T02:53:40.491Z,102218.89
2023-04-10T02:54:10.914Z,102218.05
2023-04-10T02:54:41.334Z,102216.70
2023-04-10T02:55:11.758Z,102214.33
2023-04-10T02:55:42.175Z,102214.14
2023-04-10T02:56:12.594Z,102211.80
2023-04-10T02:56:43.020Z,102211.27
2023-04-10T02:57:13.453Z,102211.95
2023-04-10T02:57:43.873Z,102210.94
2023-04-10T02:58:15.269Z,102214.48
2023-04-10T02:58:45.719Z,102213.98
2023-04-10T02:59:16.131Z,102212.32
2023-04-10T02:59:46.543Z,102213.33
2023-04-10T03:00:16.968Z,102214.16
2023-04-10T03:00:47.421Z,102217.19
2023-04-10T03:01:17.823Z,102216.85
2023-04-10T03:01:48.285Z,102216.70
2023-04-10T03:02:18.732Z,102220.39
2023-04-10T03:02:49.491Z,102213.97
2023-04-10T03:03:20.185Z,102217.34
2023-04-10T03:03:50.725Z,102213.82
2023-04-10T03:04:21.282Z,102218.36
2023-04-10T03:04:51.770Z,102217.85
2023-04-10T03:05:22.219Z,102217.19
2023-04-10T03:05:52.646Z,102213.82
2023-04-10T03:06:23.066Z,102215.16
2023-04-10T03:06:53.487Z,102217.17
2023-04-10T03:07:23.908Z,102218.52
2023-04-10T03:07:54.332Z,102221.55
2023-04-10T03:08:24.752Z,102219.55
2023-04-10T03:08:55.184Z,102221.41
2023-04-10T03:09:25.605Z,102223.09
2023-04-10T03:09:56.027Z,102223.27
2023-04-10T03:10:26.454Z,102220.88
2023-04-10T03:10:56.890Z,102223.92
2023-04-10T03:11:27.333Z,102225.09
2023-04-10T03:11:57.741Z,102221.73
2023-04-10T03:12:28.172Z,102218.88
2023-04-10T03:12:58.603Z,102221.39
2023-04-10T03:13:29.086Z,102218.86
2023-04-10T03:13:59.522Z,102218.70
2023-04-10T03:14:29.889Z,102222.73
2023-04-10T03:15:00.315Z,102217.01
2023-04-10T03:15:30.728Z,102216.34
2023-04-10T03:16:01.200Z,102222.54
2023-04-10T03:16:31.649Z,102217.01
2023-04-10T03:17:02.122Z,102217.98
2023-04-10T03:17:32.639Z,102216.31
2023-04-10T03:18:03.073Z,102220.18
2023-04-10T03:18:33.515Z,102217.47
2023-04-10T03:19:03.939Z,102217.97
2023-04-10T03:19:34.366Z,102221.16
2023-04-10T03:20:04.784Z,102219.84
2023-04-10T03:20:35.214Z,102222.02
2023-04-10T03:21:05.639Z,102223.52
2023-04-10T03:21:36.055Z,102221.53
2023-04-10T03:22:06.476Z,102224.03
2023-04-10T03:22:36.894Z,102222.37
2023-04-10T03:23:07.322Z,102219.02
2023-04-10T03:23:37.737Z,102216.48
2023-04-10T03:24:08.170Z,102219.51
2023-04-10T03:24:38.624Z,102220.84
2023-04-10T03:25:09.048Z,102219.16
2023-04-10T03:25:39.472Z,102219.33
2023-04-10T03:26:09.915Z,102219.00
2023-04-10T03:26:40.310Z,102218.49
2023-04-10T03:27:10.732Z,102221.34
2023-04-10T03:27:41.170Z,102217.98
2023-04-10T03:28:11.585Z,102217.65
2023-04-10T03:28:42.054Z,102219.16
2023-04-10T03:29:12.426Z,102216.61
2023-04-10T03:29:42.861Z,102216.77
2023-04-10T03:30:13.284Z,102215.09
2023-04-10T03:30:43.708Z,102215.09
2023-04-10T03:31:14.200Z,102213.41
2023-04-10T03:31:44.641Z,102217.28
2023-04-10T03:32:15.074Z,102215.09
2023-04-10T03:32:45.499Z,102214.28
2023-04-10T03:33:15.986Z,102214.75
2023-04-10T03:33:46.468Z,102211.39
2023-04-10T03:34:16.874Z,102211.38
2023-04-10T03:34:47.297Z,102215.56
2023-04-10T03:35:17.731Z,102212.88
2023-04-10T03:35:48.165Z,102213.05
2023-04-10T03:36:18.583Z,102212.22
2023-04-10T03:36:48.986Z,102212.39
2023-04-10T03:37:19.402Z,102209.70
2023-04-10T03:37:49.833Z,102210.54
2023-04-10T03:38:20.257Z,102212.39
2023-04-10T03:38:50.674Z,102208.36
2023-04-10T03:39:21.110Z,102207.19
2023-04-10T03:39:51.537Z,102211.89
2023-04-10T03:40:21.965Z,102212.39
2023-04-10T03:40:52.380Z,102208.03
2023-04-10T03:41:25.297Z,102211.75
2023-04-10T03:41:55.861Z,102210.06
2023-04-10T03:42:26.282Z,102214.25
2023-04-10T03:42:56.705Z,102212.75
2023-04-10T03:43:27.125Z,102215.24
2023-04-10T03:43:57.575Z,102214.08
2023-04-10T03:44:28.111Z,102213.23
2023-04-10T03:44:58.537Z,102213.71
2023-04-10T03:45:28.967Z,102216.74
2023-04-10T03:45:59.413Z,102216.91
2023-04-10T03:46:29.911Z,102215.75
2023-04-10T03:47:00.340Z,102215.75
2023-04-10T03:47:30.754Z,102215.42
2023-04-10T03:48:01.253Z,102216.10
2023-04-10T03:48:31.674Z,102218.78
2023-04-10T03:49:02.095Z,102216.09
2023-04-10T03:49:32.540Z,102219.81
2023-04-10T03:50:02.984Z,102218.62
2023-04-10T03:50:33.397Z,102214.73
2023-04-10T03:51:03.814Z,102214.38
2023-04-10T03:51:34.225Z,102216.06
2023-04-10T03:52:04.645Z,102217.94
2023-04-10T03:52:35.072Z,102213.38
2023-04-10T03:53:05.487Z,102217.27
2023-04-10T03:53:35.998Z,102212.90
2023-04-10T03:54:06.437Z,102216.09
2023-04-10T03:54:36.887Z,102215.58
2023-04-10T03:55:07.301Z,102216.76
2023-04-10T03:55:37.728Z,102216.59
2023-04-10T03:56:08.165Z,102214.23
2023-04-10T03:56:38.571Z,102214.22
2023-04-10T03:57:08.988Z,102213.88
2023-04-10T03:57:39.409Z,102216.41
2023-04-10T03:58:09.829Z,102213.20
2023-04-10T03:58:40.253Z,102212.86
2023-04-10T03:59:10.711Z,102218.27
2023-04-10T03:59:41.126Z,102214.89
2023-04-10T04:00:11.558Z,102215.24
2023-04-10T04:00:41.965Z,102215.58
2023-04-10T04:01:12.386Z,102214.06
2023-04-10T04:01:42.918Z,102214.22
2023-04-10T04:02:13.418Z,102214.37
2023-04-10T04:02:43.985Z,102214.22
2023-04-10T04:03:14.545Z,102208.82
2023-04-10T04:03:45.156Z,102208.50
2023-04-10T04:04:15.640Z,102211.86
2023-04-10T04:04:46.232Z,102208.98
2023-04-10T04:05:16.647Z,102212.02
2023-04-10T04:05:47.072Z,102214.20
2023-04-10T04:06:17.496Z,102210.84
2023-04-10T04:06:47.921Z,102212.36
2023-04-10T04:07:18.343Z,102211.67
2023-04-10T04:07:48.781Z,102214.38
2023-04-10T04:08:19.195Z,102211.52
2023-04-10T04:08:49.616Z,102210.67
2023-04-10T04:09:20.039Z,102214.03
2023-04-10T04:09:50.471Z,102212.69
2023-04-10T04:10:20.896Z,102215.02
2023-04-10T04:10:51.313Z,102214.72
2023-04-10T04:11:21.736Z,102214.69
2023-04-10T04:11:52.158Z,102213.02
2023-04-10T04:12:22.607Z,102213.36
2023-04-10T04:12:53.023Z,102213.00
2023-04-10T04:13:23.425Z,102213.19
2023-04-10T04:13:54.146Z,102213.70
2023-04-10T04:14:24.684Z,102212.66
2023-04-10T04:14:55.098Z,102213.00
2023-04-10T04:15:25.517Z,102213.17
2023-04-10T04:15:55.939Z,102210.62
2023-04-10T04:16:26.399Z,102211.31
2023-04-10T04:16:56.873Z,102213.64
2023-04-10T04:17:27.297Z,102211.98
2023-04-10T04:17:57.747Z,102209.98
2023-04-10T04:18:28.155Z,102207.96
2023-04-10T04:18:58.588Z,102209.11
2023-04-10T04:19:28.998Z,102209.62
2023-04-10T04:19:59.437Z,102212.52
2023-04-10T04:20:29.861Z,102210.47
2023-04-10T04:21:00.283Z,102213.00
2023-04-10T04:21:30.699Z,102209.31
2023-04-10T04:22:01.121Z,102213.51
2023-04-10T04:22:31.591Z,102211.98
2023-04-10T04:23:01.967Z,102211.98
2023-04-10T04:23:32.391Z,102210.83
2023-04-10T04:24:02.809Z,102211.63
2023-04-10T04:24:33.231Z,102210.81
2023-04-10T04:25:03.695Z,102211.31
2023-04-10T04:25:34.088Z,102207.75
2023-04-10T04:26:04.518Z,102214.16
2023-04-10T04:26:34.941Z,102210.29
2023-04-10T04:27:05.366Z,102207.94
2023-04-10T04:27:35.787Z,102207.75
2023-04-10T04:28:06.204Z,102214.35
2023-04-10T04:28:36.623Z,102208.12
2023-04-10T04:29:07.056Z,102210.15
2023-04-10T04:29:37.489Z,102207.94
2023-04-10T04:30:07.904Z,102210.47
2023-04-10T04:30:38.350Z,102212.50
2023-04-10T04:31:08.755Z,102209.45
2023-04-10T04:31:39.210Z,102209.97
2023-04-10T04:32:09.650Z,102211.48
2023-04-10T04:32:40.074Z,102212.33
2023-04-10T04:33:10.454Z,102208.44
2023-04-10T04:33:40.875Z,102213.16
2023-04-10T04:34:11.300Z,102211.14
2023-04-10T04:34:41.718Z,102211.30
2023-04-10T04:35:12.178Z,102210.81
2023-04-10T04:35:42.597Z,102211.14
2023-04-10T04:36:13.028Z,102209.62
2023-04-10T04:36:43.442Z,102210.45
2023-04-10T04:37:13.853Z,102212.83
2023-04-10T04:37:44.279Z,102211.14
2023-04-10T04:38:14.694Z,102209.97
2023-04-10T04:38:45.117Z,102211.97
2023-04-10T04:39:15.557Z,102208.11
2023-04-10T04:39:45.968Z,102206.95
2023-04-10T04:40:16.419Z,102208.79
2023-04-10T04:40:46.820Z,102211.31
2023-04-10T04:41:19.378Z,102208.79
2023-04-10T04:41:50.807Z,102211.82
2023-04-10T04:42:21.230Z,102211.80
2023-04-10T04:42:51.650Z,102213.52
2023-04-10T04:43:22.072Z,102213.51
2023-04-10T04:43:52.716Z,102215.53
2023-04-10T04:44:23.236Z,102214.37
2023-04-10T04:44:53.673Z,102216.52
2023-04-10T04:45:24.252Z,102217.05
2023-04-10T04:45:54.696Z,102216.88
2023-04-10T04:46:25.233Z,102213.34
2023-04-10T04:46:55.680Z,102214.86
2023-04-10T04:47:26.114Z,102216.03
2023-04-10T04:47:56.539Z,102214.53
2023-04-10T04:48:26.940Z,102214.53
2023-04-10T04:48:57.360Z,102216.54
2023-04-10T04:49:27.781Z,102215.68
2023-04-10T04:49:58.201Z,102213.83
2023-04-10T04:50:28.648Z,102212.98
2023-04-10T04:50:59.064Z,102213.30
2023-04-10T04:51:29.491Z,102211.45
2023-04-10T04:51:59.938Z,102211.47
2023-04-10T04:52:30.363Z,102213.33
2023-04-10T04:53:00.790Z,102212.97
2023-04-10T04:53:31.228Z,102212.50
2023-04-10T04:54:01.640Z,102212.66
2023-04-10T04:54:32.064Z,102210.32
2023-04-10T04:55:02.559Z,102211.66
2023-04-10T04:55:32.938Z,102211.66
2023-04-10T04:56:03.388Z,102212.52
2023-04-10T04:56:33.807Z,102211.86
2023-04-10T04:57:04.230Z,102212.87
2023-04-10T04:57:34.645Z,102214.22
2023-04-10T04:58:05.070Z,102210.99
2023-04-10T04:58:35.512Z,102212.14
2023-04-10T04:59:05.916Z,102212.64
2023-04-10T04:59:36.341Z,102209.80
2023-04-10T05:00:06.789Z,102210.61
2023-04-10T05:00:37.200Z,102211.63
2023-04-10T05:01:07.667Z,102212.97
2023-04-10T05:01:38.176Z,102215.66
2023-04-10T05:02:08.682Z,102213.30
2023-04-10T05:02:39.231Z,102215.01
2023-04-10T05:03:09.757Z,102212.14
2023-04-10T05:03:40.363Z,102213.81
2023-04-10T05:04:10.945Z,102212.80
2023-04-10T05:04:41.385Z,102213.47
2023-04-10T05:05:11.807Z,102214.50
2023-04-10T05:05:42.240Z,102213.51
2023-04-10T05:06:12.666Z,102216.36
2023-04-10T05:06:43.096Z,102214.66
2023-04-10T05:07:13.525Z,102215.85
2023-04-10T05:07:43.934Z,102215.84
2023-04-10T05:08:14.361Z,102219.20
2023-04-10T05:08:44.819Z,102217.37
2023-04-10T05:09:15.246Z,102217.37
2023-04-10T05:09:45.684Z,102216.19
2023-04-10T05:10:16.093Z,102216.02
2023-04-10T05:10:46.541Z,102216.00
2023-04-10T05:11:16.941Z,102214.64
2023-04-10T05:11:47.358Z,102213.13
2023-04-10T05:12:17.785Z,102217.82
2023-04-10T05:12:48.206Z,102216.16
2023-04-10T05:13:18.642Z,102215.31
2023-04-10T05:13:49.062Z,102212.29
2023-04-10T05:14:19.484Z,102214.48
2023-04-10T05:14:49.907Z,102214.66
2023-04-10T05:15:20.397Z,102217.52
2023-04-10T05:15:50.809Z,102214.48
2023-04-10T05:16:21.294Z,102218.16
2023-04-10T05:16:51.763Z,102221.36
2023-04-10T05:17:22.223Z,102219.20
2023-04-10T05:17:52.809Z,102221.70
2023-04-10T05:18:23.262Z,102221.36
2023-04-10T05:18:54.223Z,102219.83
2023-04-10T05:19:24.770Z,102221.70
2023-04-10T05:19:55.197Z,102220.17
2023-04-10T05:20:25.613Z,102220.52
2023-04-10T05:20:56.062Z,102222.55
2023-04-10T05:21:26.478Z,102222.88
2023-04-10T05:21:56.899Z,102219.53
2023-04-10T05:22:27.321Z,102219.34
2023-04-10T05:22:57.744Z,102223.39
2023-04-10T05:23:28.179Z,102222.36
2023-04-10T05:23:58.601Z,102221.69
2023-04-10T05:24:29.024Z,102221.36
2023-04-10T05:24:59.450Z,102220.33
2023-04-10T05:25:29.880Z,102221.67
2023-04-10T05:26:00.324Z,102222.70
2023-04-10T05:26:30.745Z,102221.84
2023-04-10T05:27:01.167Z,102224.69
2023-04-10T05:27:31.588Z,102223.52
2023-04-10T05:28:02.106Z,102222.64
2023-04-10T05:28:32.485Z,102225.34
2023-04-10T05:29:02.910Z,102226.52
2023-04-10T05:29:33.332Z,102229.23
2023-04-10T05:30:03.756Z,102230.57
2023-04-10T05:30:34.194Z,102231.08
2023-04-10T05:31:04.650Z,102229.41
2023-04-10T05:31:35.116Z,102230.23
2023-04-10T05:32:05.667Z,102232.11
2023-04-10T05:32:36.078Z,102229.73
2023-04-10T05:33:06.512Z,102231.75
2023-04-10T05:33:36.931Z,102228.04
2023-04-10T05:34:07.348Z,102229.58
2023-04-10T05:34:37.772Z,102232.58
2023-04-10T05:35:08.193Z,102228.88
2023-04-10T05:35:38.625Z,102228.36
2023-04-10T05:36:09.120Z,102227.03
2023-04-10T05:36:39.495Z,102228.52
2023-04-10T05:37:09.916Z,102230.20
2023-04-10T05:37:40.351Z,102222.95
2023-04-10T05:38:10.766Z,102224.95
2023-04-10T05:38:41.200Z,102227.14
2023-04-10T05:39:11.615Z,102226.79
2023-04-10T05:39:42.037Z,102222.94
2023-04-10T05:40:12.461Z,102222.59
2023-04-10T05:40:42.878Z,102222.91
2023-04-10T05:41:13.325Z,102222.91
2023-04-10T05:41:43.749Z,102223.75
2023-04-10T05:42:14.169Z,102225.30
2023-04-10T05:42:44.589Z,102227.80
2023-04-10T05:43:15.010Z,102221.74
2023-04-10T05:43:45.433Z,102224.42
2023-04-10T05:44:15.853Z,102222.73
2023-04-10T05:44:46.280Z,102222.57
2023-04-10T05:45:16.720Z,102220.89
2023-04-10T05:45:47.258Z,102223.91
2023-04-10T05:46:17.652Z,102223.72
2023-04-10T05:46:48.084Z,102221.55
2023-04-10T05:47:18.553Z,102220.34